createdAt,value
2019-03-24T00:04:23.199Z,1
2019-03-24T00:09:25.870Z,1
2019-03-24T00:14:28.035Z,1
2019-03-24T00:19:30.494Z,1
2019-03-24T00:24:32.939Z,1
2019-03-24T00:29:35.475Z,1
2019-03-24T00:34:37.999Z,1
2019-03-24T00:39:40.605Z,1
2019-03-24T00:44:42.823Z,1
2019-03-24T00:49:45.232Z,1
2019-03-24T00:54:47.706Z,1
2019-03-24T00:59:50.155Z,1
2019-03-24T01:04:52.696Z,1
2019-03-24T01:09:55.346Z,1
2019-03-24T01:14:57.572Z,1
2019-03-24T01:19:59.981Z,1
2019-03-24T01:30:04.930Z,1
2019-03-24T01:35:07.432Z,1
2019-03-24T01:40:09.899Z,1
2019-03-24T01:45:12.260Z,1
2019-03-24T01:50:14.716Z,1
2019-03-24T01:55:17.193Z,1
2019-03-24T02:00:19.640Z,1
2019-03-24T02:05:22.172Z,1
2019-03-24T02:10:24.924Z,4
2019-03-24T02:15:27.013Z,7.1
2019-03-24T02:20:29.458Z,8.6
2019-03-24T02:25:32.035Z,13.7
2019-03-24T02:30:34.443Z,10.5
2019-03-24T02:35:36.917Z,10.5
2019-03-24T02:40:39.293Z,14.3
2019-03-24T02:45:41.749Z,20.6
2019-03-24T02:50:44.213Z,23.4
2019-03-24T02:55:46.662Z,23
2019-03-24T03:00:49.115Z,23
2019-03-24T03:05:51.692Z,23.8
2019-03-24T03:10:54.049Z,22.4
2019-03-24T03:15:56.506Z,25.1
2019-03-24T03:20:59.034Z,27.5
2019-03-24T03:26:01.420Z,30
2019-03-24T03:31:03.912Z,33.2
2019-03-24T03:36:06.404Z,38.6
2019-03-24T03:41:08.806Z,34.6
2019-03-24T03:46:11.242Z,40.8
2019-03-24T03:51:13.740Z,38.6
2019-03-24T03:56:16.228Z,42.8
2019-03-24T04:01:18.613Z,44.4
2019-03-24T04:06:21.159Z,52.2
2019-03-24T04:11:23.553Z,54.8
2019-03-24T04:36:36.043Z,90.2
2019-03-24T04:41:38.264Z,91.5
2019-03-24T04:46:40.723Z,91.9
2019-03-24T04:51:43.217Z,92
2019-03-24T04:56:45.656Z,92.6
2019-03-24T05:01:48.159Z,96.2
2019-03-24T05:06:50.568Z,95.9
2019-03-24T05:11:53.375Z,97.8
2019-03-24T05:16:55.469Z,97.7
2019-03-24T05:21:57.925Z,97.7
2019-03-24T05:27:00.473Z,97
2019-03-24T05:32:02.843Z,96.7
2019-03-24T05:37:05.447Z,96
2019-03-24T05:42:07.823Z,96.5
2019-03-24T05:47:10.211Z,95.9
2019-03-24T05:52:12.682Z,94.6
2019-03-24T05:57:15.125Z,93.2
2019-03-24T06:02:17.744Z,92.4
2019-03-24T06:07:20.128Z,90.8
2019-03-24T06:12:22.813Z,90.1
2019-03-24T06:17:24.975Z,89.3
2019-03-24T06:22:27.429Z,85.8
2019-03-24T06:27:29.882Z,79.6
2019-03-24T06:32:32.393Z,68.5
2019-03-24T06:37:34.799Z,50.5
2019-03-24T06:42:37.245Z,40.4
2019-03-24T06:47:39.709Z,24.9
2019-03-24T06:52:42.206Z,15.4
2019-03-24T06:57:44.623Z,6
2019-03-24T07:02:47.087Z,1
2019-03-24T07:07:49.557Z,1
2019-03-24T07:12:51.991Z,1
2019-03-24T07:17:54.450Z,1
2019-03-24T07:22:56.928Z,1
2019-03-24T07:27:59.362Z,1
2019-03-24T07:33:01.817Z,1
2019-03-24T07:38:04.390Z,1
2019-03-24T07:43:06.750Z,1
2019-03-24T07:48:18.605Z,1
2019-03-24T07:53:11.723Z,1
2019-03-24T07:58:14.104Z,1
2019-03-24T08:03:16.609Z,1
2019-03-24T08:08:19.410Z,1
2019-03-24T08:13:21.501Z,1
2019-03-24T08:18:29.714Z,1
2019-03-24T08:23:26.401Z,1
2019-03-24T08:28:28.917Z,1
2019-03-24T08:33:31.385Z,1
2019-03-24T08:38:33.858Z,1
2019-03-24T08:43:36.517Z,1
2019-03-24T08:48:40.996Z,1
2019-03-24T08:53:41.238Z,1
2019-03-24T08:58:43.635Z,1
2019-03-24T09:03:46.179Z,1
2019-03-24T09:08:49.032Z,1
2019-03-24T09:13:51.020Z,1
2019-03-24T09:18:53.701Z,1
2019-03-24T09:23:55.929Z,1
2019-03-24T09:28:59.347Z,1
2019-03-24T09:34:00.864Z,1
2019-03-24T09:39:03.282Z,1
2019-03-24T09:44:05.729Z,1
2019-03-24T09:49:08.216Z,1
2019-03-24T09:54:10.636Z,1
2019-03-24T09:59:13.200Z,1
2019-03-24T10:04:15.807Z,1
2019-03-24T10:09:18.101Z,1
2019-03-24T10:14:20.500Z,1
2019-03-24T10:19:22.935Z,1
2019-03-24T10:24:25.394Z,1
2019-03-24T10:29:27.835Z,1
2019-03-24T10:34:30.348Z,1
2019-03-24T10:39:32.823Z,1
2019-03-24T10:44:35.503Z,1
2019-03-24T10:49:37.659Z,1
2019-03-24T10:54:40.130Z,1
2019-03-24T10:59:42.590Z,1
2019-03-24T11:04:45.052Z,1
2019-03-24T11:09:47.683Z,1
2019-03-24T11:14:49.961Z,1
2019-03-24T11:19:52.406Z,1
2019-03-24T11:24:54.872Z,1
2019-03-24T11:29:57.702Z,1
2019-03-24T11:34:59.774Z,1
2019-03-24T11:40:02.425Z,1
2019-03-24T11:45:05.001Z,1
2019-03-24T11:50:07.274Z,1
2019-03-24T11:55:09.699Z,1
2019-03-24T12:00:12.092Z,1
2019-03-24T12:05:14.528Z,1
2019-03-24T12:10:17.078Z,1
2019-03-24T12:15:19.446Z,1
2019-03-24T12:20:21.916Z,1
2019-03-24T12:25:24.388Z,1
2019-03-24T12:30:26.822Z,1
2019-03-24T12:35:29.317Z,1
2019-03-24T12:40:31.823Z,1
2019-03-24T12:45:34.514Z,1
2019-03-24T12:50:36.688Z,1
2019-03-24T12:55:39.103Z,1
2019-03-24T13:00:41.567Z,1
2019-03-24T13:05:44.118Z,1
2019-03-24T13:10:46.564Z,1
2019-03-24T13:15:49.731Z,1
2019-03-24T13:20:51.389Z,1
2019-03-24T13:25:53.863Z,1
2019-03-24T13:30:56.354Z,1
2019-03-24T13:35:58.789Z,1
2019-03-24T13:41:01.386Z,1
2019-03-24T13:46:04.023Z,1
2019-03-24T13:51:06.154Z,1
2019-03-24T13:56:08.597Z,1
2019-03-24T14:01:11.213Z,1
2019-03-24T14:06:13.518Z,1
2019-03-24T14:11:16.024Z,1
2019-03-24T14:16:18.485Z,1
2019-03-24T14:21:20.915Z,1
2019-03-24T14:26:23.340Z,1
2019-03-24T14:31:25.801Z,1
2019-03-24T14:36:28.301Z,1
2019-03-24T14:41:30.808Z,1
2019-03-24T14:46:33.464Z,1
2019-03-24T14:51:35.649Z,1
2019-03-24T14:56:38.087Z,1
2019-03-24T15:01:40.615Z,1
2019-03-24T15:06:43.069Z,1
2019-03-24T15:11:45.505Z,1
2019-03-24T15:16:47.969Z,1
2019-03-24T15:21:50.392Z,1
2019-03-24T15:26:52.860Z,1
2019-03-24T15:31:55.292Z,1
2019-03-24T15:36:57.931Z,1
2019-03-24T15:42:00.331Z,1
2019-03-24T15:47:02.665Z,1
2019-03-24T15:52:05.133Z,1
2019-03-24T15:57:07.695Z,1
2019-03-24T16:02:10.035Z,1
2019-03-24T16:07:12.543Z,1
2019-03-24T16:12:15.083Z,1
2019-03-24T16:17:17.644Z,1
2019-03-24T16:22:19.875Z,1
2019-03-24T16:27:22.405Z,1
2019-03-24T16:32:24.864Z,1
2019-03-24T16:37:27.241Z,1
2019-03-24T16:42:29.813Z,1
2019-03-24T16:47:32.236Z,1
2019-03-24T16:52:34.729Z,1
2019-03-24T16:57:37.081Z,1
2019-03-24T17:07:41.971Z,1
2019-03-24T17:12:44.454Z,1
2019-03-24T17:17:46.906Z,1
2019-03-24T17:22:49.403Z,1
2019-03-24T17:27:51.814Z,1
2019-03-24T17:32:54.287Z,1
2019-03-24T17:37:56.722Z,1
2019-03-24T17:42:59.328Z,1
2019-03-24T17:48:01.954Z,1
2019-03-24T17:53:06.487Z,1
2019-03-24T17:58:06.556Z,1
2019-03-24T18:03:09.038Z,1
2019-03-24T18:08:11.451Z,1
2019-03-24T18:13:14.024Z,1
2019-03-24T18:18:16.741Z,1
2019-03-24T18:23:18.836Z,1
2019-03-24T18:38:26.216Z,1
2019-03-24T18:43:28.695Z,1
2019-03-24T18:48:31.166Z,1
2019-03-24T18:53:33.575Z,1
2019-03-24T18:58:36.072Z,1
2019-03-24T19:03:38.526Z,1
2019-03-24T19:08:40.978Z,1
2019-03-24T19:13:43.487Z,1
2019-03-24T19:18:46.166Z,1
2019-03-24T19:23:48.335Z,1
2019-03-24T19:28:50.776Z,1
2019-03-24T19:33:53.227Z,1
2019-03-24T19:38:55.705Z,1
2019-03-24T19:43:58.175Z,1
2019-03-24T19:49:00.942Z,1
2019-03-24T19:54:03.126Z,1
2019-03-24T19:59:05.511Z,1
2019-03-24T20:04:08.038Z,1
2019-03-24T20:09:10.446Z,1
2019-03-24T20:14:12.975Z,1
2019-03-24T20:24:17.829Z,1
2019-03-24T20:29:20.287Z,1
2019-03-24T20:34:22.757Z,1
2019-03-24T20:39:25.330Z,1
2019-03-24T20:44:27.728Z,2.3
2019-03-24T20:49:30.125Z,15.2
2019-03-24T20:54:32.624Z,25.1
2019-03-24T20:59:35.021Z,25.5
2019-03-24T21:04:37.481Z,38.4
2019-03-24T21:09:40.013Z,53.6
2019-03-24T21:14:42.433Z,61.5
2019-03-24T21:19:44.936Z,61.3
2019-03-24T21:24:47.341Z,64
2019-03-24T21:29:49.790Z,69.3
2019-03-24T21:34:52.296Z,69.3
2019-03-24T21:39:54.811Z,77.1
2019-03-24T21:44:57.190Z,77
2019-03-24T21:49:59.665Z,85.8
2019-03-24T21:55:02.536Z,90.9
2019-03-24T22:00:04.558Z,90.8
2019-03-24T22:10:09.482Z,94.6
2019-03-24T22:15:12.283Z,94.8
2019-03-24T22:20:14.401Z,94.5
2019-03-24T22:25:17.248Z,94.1
2019-03-24T22:30:19.307Z,94.7
2019-03-24T22:35:21.775Z,95.2
2019-03-24T22:40:24.243Z,95.9
2019-03-24T22:45:26.888Z,95.6
2019-03-24T22:50:29.183Z,95.1
2019-03-24T22:55:31.914Z,96.2
2019-03-24T23:00:34.075Z,96.3
2019-03-24T23:05:36.568Z,96.2
2019-03-24T23:10:39.036Z,96
2019-03-24T23:15:41.516Z,95.3
2019-03-24T23:20:43.923Z,94.6
2019-03-24T23:25:46.768Z,95.3
2019-03-24T23:30:48.819Z,94.3
2019-03-24T23:35:51.283Z,95.1
2019-03-24T23:40:53.755Z,95.5
2019-03-24T23:45:56.277Z,94.9
2019-03-24T23:50:58.708Z,94.6
2019-03-24T23:56:01.476Z,93.3
